Sitka, AK (99835)

10:40 AM AKDT on April 30, 2017 (GMT -0800)
Sitka Rocky Gutierrez | | Change Station

Elev 20 ft 57.05 °N, 135.36 °W | Updated 47 minutes ago

Mostly Cloudy
Mostly Cloudy
45 °F
Feels Like 45 °F
N
0
Wind Variable Wind from North

Today
High -- | Low -- °F
--% Chance of Precip.
Yesterday
High -- | Low -- °F
Precip. -- in
Pressure 30.02 in
Visibility 7.0 miles
Clouds Scattered Clouds 1800 ft
Mostly Cloudy 2300 ft
Mostly Cloudy 4300 ft
Dew Point 41 °F
Humidity 86%
Rainfall 0.02 in
Snow Depth Not available.
5:14 AM 8:44 PM
Waxing Crescent, 25% visible
METAR PASI 301753Z 00000KT 7SM -RA SCT018 BKN023 BKN043 07/05 A3002 RMK AO2 RAB23 SLP166 P0002 60002 T00720050 10072 20039 51020
Pressure 30.02 in
Visibility 7.0 miles
Clouds Scattered Clouds 1800 ft
Mostly Cloudy 2300 ft
Mostly Cloudy 4300 ft
Dew Point 41 °F
Humidity 86%
Rainfall 0.02 in
Snow Depth Not available.
5:14 AM 8:44 PM
Waxing Crescent, 25% visible
METAR PASI 301753Z 00000KT 7SM -RA SCT018 BKN023 BKN043 07/05 A3002 RMK AO2 RAB23 SLP166 P0002 60002 T00720050 10072 20039 51020

Get Severe Weather Alerts

Thanks for signing up!

Be on the lookout for a verification email in your inbox.

You'll start receiving the daily forecast at 8 AM.

×

10-Day Weather Forecast

Almanac

Astronomy

Apr. 30, 2017 Rise Set
Actual Time
Civil Twilight
Nautical Twilight
Astronomical Twilight
Moon
Length of Visible Light
Length of Day
Tomorrow will be .
, % of the Moon is Illuminated

Today's Extremes

State Highs State Lows

Community

WunderPhotos

WunderBlog® & News

Nearby

Air Quality

  Air Quality AQ Index Pollutant
Not available.

Snow Depth

Station Depth Elevation

Earthquake Activity

City Distance Mag. Time & Date
Minimum magnitude displayed is 2.5.

Coastal Water Temperatures

Place Temperature

Stations

Nearby Weather Stations

Station Location Temp. Windchill Dew Point Humidity Wind Precip. Elev Updated Type
                   

Watches & Warnings

There are currently no watches in effect.